sensor_id;sensor_type;location;lat;lon;timestamp;P1;durP1;ratioP1;P2;durP2;ratioP2
5493;SDS011;2769;49.864;8.656;2023-03-31T00:01:42;3.03;;;1.60;;
5493;SDS011;2769;49.864;8.656;2023-03-31T00:04:11;4.90;;;1.80;;
5493;SDS011;2769;49.864;8.656;2023-03-31T00:06:40;6.53;;;1.80;;
5493;SDS011;2769;49.864;8.656;2023-03-31T00:09:09;8.07;;;2.83;;
5493;SDS011;2769;49.864;8.656;2023-03-31T00:11:38;5.13;;;1.50;;
5493;SDS011;2769;49.864;8.656;2023-03-31T00:14:06;3.77;;;1.50;;
5493;SDS011;2769;49.864;8.656;2023-03-31T00:16:35;5.83;;;2.00;;
5493;SDS011;2769;49.864;8.656;2023-03-31T00:19:04;5.47;;;1.80;;
5493;SDS011;2769;49.864;8.656;2023-03-31T00:21:37;8.10;;;2.20;;
5493;SDS011;2769;49.864;8.656;2023-03-31T00:24:08;6.90;;;1.93;;
5493;SDS011;2769;49.864;8.656;2023-03-31T00:26:37;2.93;;;1.47;;
5493;SDS011;2769;49.864;8.656;2023-03-31T00:29:05;5.50;;;1.93;;
5493;SDS011;2769;49.864;8.656;2023-03-31T00:31:34;6.20;;;1.87;;
5493;SDS011;2769;49.864;8.656;2023-03-31T00:34:04;5.80;;;1.60;;
5493;SDS011;2769;49.864;8.656;2023-03-31T00:36:33;3.07;;;1.63;;
5493;SDS011;2769;49.864;8.656;2023-03-31T00:39:05;5.10;;;1.93;;
5493;SDS011;2769;49.864;8.656;2023-03-31T00:41:34;3.07;;;1.30;;
5493;SDS011;2769;49.864;8.656;2023-03-31T00:44:07;7.20;;;1.70;;
5493;SDS011;2769;49.864;8.656;2023-03-31T00:46:42;6.47;;;1.97;;
5493;SDS011;2769;49.864;8.656;2023-03-31T00:49:13;8.20;;;1.90;;
5493;SDS011;2769;49.864;8.656;2023-03-31T00:51:46;5.43;;;1.83;;
5493;SDS011;2769;49.864;8.656;2023-03-31T00:54:16;8.40;;;3.50;;
5493;SDS011;2769;49.864;8.656;2023-03-31T00:56:46;5.57;;;2.10;;
5493;SDS011;2769;49.864;8.656;2023-03-31T00:59:16;3.17;;;1.90;;
5493;SDS011;2769;49.864;8.656;2023-03-31T01:01:44;8.30;;;2.13;;
5493;SDS011;2769;49.864;8.656;2023-03-31T01:04:16;4.90;;;1.60;;
5493;SDS011;2769;49.864;8.656;2023-03-31T01:06:50;1.93;;;1.63;;
5493;SDS011;2769;49.864;8.656;2023-03-31T01:09:24;5.70;;;2.33;;
5493;SDS011;2769;49.864;8.656;2023-03-31T01:11:56;6.60;;;2.00;;
5493;SDS011;2769;49.864;8.656;2023-03-31T01:14:24;3.53;;;1.50;;
5493;SDS011;2769;49.864;8.656;2023-03-31T01:16:52;6.03;;;1.83;;
5493;SDS011;2769;49.864;8.656;2023-03-31T01:19:22;6.17;;;2.13;;
5493;SDS011;2769;49.864;8.656;2023-03-31T01:25:20;3.73;;;2.00;;
5493;SDS011;2769;49.864;8.656;2023-03-31T01:28:14;8.70;;;2.20;;
5493;SDS011;2769;49.864;8.656;2023-03-31T01:36:54;6.13;;;2.00;;
5493;SDS011;2769;49.864;8.656;2023-03-31T01:42:38;6.77;;;1.90;;
5493;SDS011;2769;49.864;8.656;2023-03-31T01:45:12;3.93;;;1.67;;
5493;SDS011;2769;49.864;8.656;2023-03-31T01:47:45;8.40;;;2.77;;
5493;SDS011;2769;49.864;8.656;2023-03-31T01:50:21;7.70;;;1.83;;
5493;SDS011;2769;49.864;8.656;2023-03-31T01:52:55;8.03;;;2.00;;
5493;SDS011;2769;49.864;8.656;2023-03-31T01:55:25;4.60;;;1.90;;
5493;SDS011;2769;49.864;8.656;2023-03-31T01:57:59;4.60;;;2.10;;
5493;SDS011;2769;49.864;8.656;2023-03-31T02:00:32;5.10;;;1.90;;
5493;SDS011;2769;49.864;8.656;2023-03-31T02:03:04;9.13;;;2.00;;
5493;SDS011;2769;49.864;8.656;2023-03-31T02:05:34;6.67;;;2.20;;
5493;SDS011;2769;49.864;8.656;2023-03-31T02:08:05;9.23;;;2.10;;
5493;SDS011;2769;49.864;8.656;2023-03-31T02:10:35;7.80;;;1.60;;
5493;SDS011;2769;49.864;8.656;2023-03-31T02:13:04;8.17;;;3.03;;
5493;SDS011;2769;49.864;8.656;2023-03-31T02:15:37;9.93;;;2.43;;
5493;SDS011;2769;49.864;8.656;2023-03-31T02:18:08;18.70;;;2.70;;
5493;SDS011;2769;49.864;8.656;2023-03-31T02:20:39;13.20;;;3.90;;
5493;SDS011;2769;49.864;8.656;2023-03-31T02:23:08;9.67;;;2.33;;
5493;SDS011;2769;49.864;8.656;2023-03-31T02:25:39;10.33;;;2.47;;
5493;SDS011;2769;49.864;8.656;2023-03-31T02:28:14;6.50;;;2.07;;
5493;SDS011;2769;49.864;8.656;2023-03-31T02:30:47;8.73;;;2.03;;
5493;SDS011;2769;49.864;8.656;2023-03-31T02:33:19;6.67;;;2.40;;
5493;SDS011;2769;49.864;8.656;2023-03-31T02:35:47;6.40;;;2.10;;
5493;SDS011;2769;49.864;8.656;2023-03-31T02:38:15;6.63;;;2.10;;
5493;SDS011;2769;49.864;8.656;2023-03-31T02:40:43;4.17;;;1.67;;
5493;SDS011;2769;49.864;8.656;2023-03-31T02:43:11;4.40;;;1.53;;
5493;SDS011;2769;49.864;8.656;2023-03-31T02:45:41;7.70;;;2.10;;
5493;SDS011;2769;49.864;8.656;2023-03-31T02:48:12;6.40;;;2.20;;
5493;SDS011;2769;49.864;8.656;2023-03-31T02:51:00;3.97;;;1.67;;
5493;SDS011;2769;49.864;8.656;2023-03-31T02:53:46;5.20;;;1.83;;
5493;SDS011;2769;49.864;8.656;2023-03-31T02:56:28;9.70;;;2.33;;
5493;SDS011;2769;49.864;8.656;2023-03-31T02:59:09;13.10;;;2.07;;
5493;SDS011;2769;49.864;8.656;2023-03-31T03:01:47;10.73;;;1.80;;
5493;SDS011;2769;49.864;8.656;2023-03-31T03:04:28;11.90;;;2.57;;
5493;SDS011;2769;49.864;8.656;2023-03-31T03:07:04;9.00;;;2.40;;
5493;SDS011;2769;49.864;8.656;2023-03-31T03:09:38;12.70;;;3.23;;
5493;SDS011;2769;49.864;8.656;2023-03-31T03:12:14;6.63;;;2.30;;
5493;SDS011;2769;49.864;8.656;2023-03-31T03:14:45;7.50;;;2.67;;
5493;SDS011;2769;49.864;8.656;2023-03-31T03:17:17;12.53;;;2.10;;
5493;SDS011;2769;49.864;8.656;2023-03-31T03:19:49;5.60;;;2.03;;
5493;SDS011;2769;49.864;8.656;2023-03-31T03:22:19;14.10;;;2.13;;
5493;SDS011;2769;49.864;8.656;2023-03-31T03:24:47;8.67;;;2.10;;
5493;SDS011;2769;49.864;8.656;2023-03-31T03:27:16;2.77;;;1.90;;
5493;SDS011;2769;49.864;8.656;2023-03-31T03:29:44;7.40;;;2.10;;
5493;SDS011;2769;49.864;8.656;2023-03-31T03:32:13;7.80;;;2.70;;
5493;SDS011;2769;49.864;8.656;2023-03-31T03:34:42;5.30;;;2.00;;
5493;SDS011;2769;49.864;8.656;2023-03-31T03:37:10;7.93;;;2.57;;
5493;SDS011;2769;49.864;8.656;2023-03-31T03:39:38;4.30;;;2.20;;
5493;SDS011;2769;49.864;8.656;2023-03-31T03:42:06;2.33;;;1.53;;
5493;SDS011;2769;49.864;8.656;2023-03-31T03:44:34;8.43;;;2.00;;
5493;SDS011;2769;49.864;8.656;2023-03-31T03:47:02;6.17;;;2.23;;
5493;SDS011;2769;49.864;8.656;2023-03-31T03:49:30;6.13;;;2.10;;
5493;SDS011;2769;49.864;8.656;2023-03-31T03:51:59;10.03;;;2.67;;
5493;SDS011;2769;49.864;8.656;2023-03-31T03:54:27;6.37;;;2.20;;
5493;SDS011;2769;49.864;8.656;2023-03-31T03:56:55;5.70;;;2.40;;
5493;SDS011;2769;49.864;8.656;2023-03-31T03:59:23;4.73;;;1.90;;
5493;SDS011;2769;49.864;8.656;2023-03-31T04:01:51;5.60;;;2.40;;
5493;SDS011;2769;49.864;8.656;2023-03-31T04:04:19;8.33;;;2.33;;
5493;SDS011;2769;49.864;8.656;2023-03-31T04:06:47;6.20;;;1.73;;
5493;SDS011;2769;49.864;8.656;2023-03-31T04:09:16;7.53;;;1.90;;
5493;SDS011;2769;49.864;8.656;2023-03-31T04:11:44;6.67;;;1.60;;
5493;SDS011;2769;49.864;8.656;2023-03-31T04:14:15;8.67;;;1.87;;
5493;SDS011;2769;49.864;8.656;2023-03-31T04:16:43;8.40;;;2.57;;
5493;SDS011;2769;49.864;8.656;2023-03-31T04:19:12;3.77;;;1.50;;
5493;SDS011;2769;49.864;8.656;2023-03-31T04:21:43;4.43;;;2.10;;
5493;SDS011;2769;49.864;8.656;2023-03-31T04:24:11;8.67;;;2.03;;
5493;SDS011;2769;49.864;8.656;2023-03-31T04:26:42;4.00;;;1.80;;
5493;SDS011;2769;49.864;8.656;2023-03-31T04:29:11;7.47;;;2.13;;
5493;SDS011;2769;49.864;8.656;2023-03-31T04:31:40;5.30;;;2.10;;
5493;SDS011;2769;49.864;8.656;2023-03-31T04:34:11;8.70;;;2.40;;
5493;SDS011;2769;49.864;8.656;2023-03-31T04:36:41;3.23;;;2.10;;
5493;SDS011;2769;49.864;8.656;2023-03-31T04:39:13;4.50;;;1.67;;
5493;SDS011;2769;49.864;8.656;2023-03-31T04:41:43;6.30;;;2.00;;
5493;SDS011;2769;49.864;8.656;2023-03-31T04:44:11;9.67;;;1.80;;
5493;SDS011;2769;49.864;8.656;2023-03-31T04:46:39;6.83;;;2.10;;
5493;SDS011;2769;49.864;8.656;2023-03-31T04:49:07;4.50;;;2.00;;
5493;SDS011;2769;49.864;8.656;2023-03-31T04:51:35;7.10;;;2.00;;
5493;SDS011;2769;49.864;8.656;2023-03-31T04:54:03;12.03;;;2.10;;
5493;SDS011;2769;49.864;8.656;2023-03-31T04:56:31;3.30;;;1.90;;
5493;SDS011;2769;49.864;8.656;2023-03-31T04:59:01;4.43;;;1.80;;
5493;SDS011;2769;49.864;8.656;2023-03-31T05:01:30;2.53;;;1.43;;
5493;SDS011;2769;49.864;8.656;2023-03-31T05:04:02;8.53;;;2.40;;
5493;SDS011;2769;49.864;8.656;2023-03-31T05:06:30;5.07;;;1.70;;
5493;SDS011;2769;49.864;8.656;2023-03-31T05:08:57;5.47;;;1.70;;
5493;SDS011;2769;49.864;8.656;2023-03-31T05:11:25;6.80;;;2.13;;
5493;SDS011;2769;49.864;8.656;2023-03-31T05:13:54;13.43;;;2.30;;
5493;SDS011;2769;49.864;8.656;2023-03-31T05:16:23;4.60;;;2.00;;
5493;SDS011;2769;49.864;8.656;2023-03-31T05:18:52;4.73;;;1.47;;
5493;SDS011;2769;49.864;8.656;2023-03-31T05:21:20;6.87;;;1.83;;
5493;SDS011;2769;49.864;8.656;2023-03-31T05:23:48;8.53;;;2.00;;
5493;SDS011;2769;49.864;8.656;2023-03-31T05:26:16;12.30;;;2.77;;
5493;SDS011;2769;49.864;8.656;2023-03-31T05:28:44;9.80;;;1.60;;
5493;SDS011;2769;49.864;8.656;2023-03-31T05:31:12;6.37;;;2.17;;
5493;SDS011;2769;49.864;8.656;2023-03-31T05:33:41;5.50;;;1.97;;
5493;SDS011;2769;49.864;8.656;2023-03-31T05:36:10;5.43;;;2.30;;
5493;SDS011;2769;49.864;8.656;2023-03-31T05:38:39;7.17;;;2.33;;
5493;SDS011;2769;49.864;8.656;2023-03-31T05:41:08;6.00;;;3.00;;
5493;SDS011;2769;49.864;8.656;2023-03-31T05:43:37;6.90;;;2.17;;
5493;SDS011;2769;49.864;8.656;2023-03-31T05:46:05;15.40;;;3.30;;
5493;SDS011;2769;49.864;8.656;2023-03-31T05:48:34;6.20;;;2.47;;
5493;SDS011;2769;49.864;8.656;2023-03-31T05:51:04;6.83;;;2.50;;
5493;SDS011;2769;49.864;8.656;2023-03-31T05:53:32;5.60;;;2.37;;
5493;SDS011;2769;49.864;8.656;2023-03-31T05:56:01;8.40;;;2.97;;
5493;SDS011;2769;49.864;8.656;2023-03-31T05:58:32;6.80;;;2.60;;
5493;SDS011;2769;49.864;8.656;2023-03-31T06:01:01;12.23;;;2.97;;
5493;SDS011;2769;49.864;8.656;2023-03-31T06:03:32;5.03;;;2.60;;
5493;SDS011;2769;49.864;8.656;2023-03-31T06:06:01;3.00;;;2.43;;
5493;SDS011;2769;49.864;8.656;2023-03-31T06:08:32;11.33;;;3.00;;
5493;SDS011;2769;49.864;8.656;2023-03-31T06:11:02;8.30;;;3.30;;
5493;SDS011;2769;49.864;8.656;2023-03-31T06:13:33;6.90;;;3.50;;
5493;SDS011;2769;49.864;8.656;2023-03-31T06:16:05;6.03;;;3.37;;
5493;SDS011;2769;49.864;8.656;2023-03-31T06:18:36;6.60;;;3.27;;
5493;SDS011;2769;49.864;8.656;2023-03-31T06:21:04;5.93;;;3.10;;
5493;SDS011;2769;49.864;8.656;2023-03-31T06:23:34;6.93;;;3.87;;
5493;SDS011;2769;49.864;8.656;2023-03-31T06:26:03;7.03;;;4.37;;
5493;SDS011;2769;49.864;8.656;2023-03-31T06:28:34;6.90;;;3.83;;
5493;SDS011;2769;49.864;8.656;2023-03-31T06:31:03;3.80;;;3.37;;
5493;SDS011;2769;49.864;8.656;2023-03-31T06:33:33;4.07;;;3.43;;
5493;SDS011;2769;49.864;8.656;2023-03-31T06:36:02;8.37;;;4.00;;
5493;SDS011;2769;49.864;8.656;2023-03-31T06:38:31;9.60;;;4.27;;
5493;SDS011;2769;49.864;8.656;2023-03-31T06:41:01;14.43;;;4.80;;
5493;SDS011;2769;49.864;8.656;2023-03-31T06:43:29;12.53;;;4.80;;
5493;SDS011;2769;49.864;8.656;2023-03-31T06:45:57;7.37;;;4.60;;
5493;SDS011;2769;49.864;8.656;2023-03-31T06:48:26;9.57;;;4.40;;
5493;SDS011;2769;49.864;8.656;2023-03-31T06:50:54;12.67;;;4.80;;
5493;SDS011;2769;49.864;8.656;2023-03-31T06:53:25;12.00;;;4.50;;
5493;SDS011;2769;49.864;8.656;2023-03-31T06:55:53;13.93;;;4.80;;
5493;SDS011;2769;49.864;8.656;2023-03-31T06:58:22;7.10;;;4.90;;
5493;SDS011;2769;49.864;8.656;2023-03-31T07:00:51;7.63;;;4.30;;
5493;SDS011;2769;49.864;8.656;2023-03-31T07:03:19;8.13;;;4.07;;
5493;SDS011;2769;49.864;8.656;2023-03-31T07:05:51;6.87;;;3.63;;
5493;SDS011;2769;49.864;8.656;2023-03-31T07:08:19;10.27;;;4.30;;
5493;SDS011;2769;49.864;8.656;2023-03-31T07:10:51;8.07;;;4.30;;
5493;SDS011;2769;49.864;8.656;2023-03-31T07:13:22;8.70;;;3.60;;
5493;SDS011;2769;49.864;8.656;2023-03-31T07:15:52;10.07;;;4.87;;
5493;SDS011;2769;49.864;8.656;2023-03-31T07:18:21;11.47;;;4.53;;
5493;SDS011;2769;49.864;8.656;2023-03-31T07:20:51;10.37;;;5.00;;
5493;SDS011;2769;49.864;8.656;2023-03-31T07:23:19;7.60;;;4.70;;
5493;SDS011;2769;49.864;8.656;2023-03-31T07:25:47;6.83;;;4.87;;
5493;SDS011;2769;49.864;8.656;2023-03-31T07:28:15;8.47;;;5.10;;
5493;SDS011;2769;49.864;8.656;2023-03-31T07:30:44;8.87;;;4.43;;
5493;SDS011;2769;49.864;8.656;2023-03-31T07:33:12;14.30;;;5.60;;
5493;SDS011;2769;49.864;8.656;2023-03-31T07:35:40;7.10;;;4.30;;
5493;SDS011;2769;49.864;8.656;2023-03-31T07:38:08;7.03;;;4.17;;
5493;SDS011;2769;49.864;8.656;2023-03-31T07:40:37;10.50;;;5.47;;
5493;SDS011;2769;49.864;8.656;2023-03-31T07:43:06;13.27;;;5.50;;
5493;SDS011;2769;49.864;8.656;2023-03-31T07:45:34;8.00;;;5.00;;
5493;SDS011;2769;49.864;8.656;2023-03-31T07:48:04;13.83;;;5.30;;
5493;SDS011;2769;49.864;8.656;2023-03-31T07:50:32;9.47;;;5.70;;
5493;SDS011;2769;49.864;8.656;2023-03-31T07:53:02;6.43;;;4.80;;
5493;SDS011;2769;49.864;8.656;2023-03-31T07:55:31;10.10;;;5.57;;
5493;SDS011;2769;49.864;8.656;2023-03-31T07:57:58;8.33;;;4.70;;
5493;SDS011;2769;49.864;8.656;2023-03-31T08:00:26;7.80;;;3.90;;
5493;SDS011;2769;49.864;8.656;2023-03-31T08:02:54;8.37;;;5.07;;
5493;SDS011;2769;49.864;8.656;2023-03-31T08:05:24;5.90;;;3.57;;
5493;SDS011;2769;49.864;8.656;2023-03-31T08:07:52;4.17;;;3.30;;
5493;SDS011;2769;49.864;8.656;2023-03-31T08:10:21;6.70;;;3.10;;
5493;SDS011;2769;49.864;8.656;2023-03-31T08:12:50;4.50;;;3.00;;
5493;SDS011;2769;49.864;8.656;2023-03-31T08:15:19;2.47;;;2.27;;
5493;SDS011;2769;49.864;8.656;2023-03-31T08:17:47;5.47;;;2.20;;
5493;SDS011;2769;49.864;8.656;2023-03-31T08:20:15;2.70;;;2.20;;
5493;SDS011;2769;49.864;8.656;2023-03-31T08:22:44;2.40;;;2.20;;
5493;SDS011;2769;49.864;8.656;2023-03-31T08:25:12;4.07;;;2.30;;
5493;SDS011;2769;49.864;8.656;2023-03-31T08:27:40;2.70;;;1.90;;
5493;SDS011;2769;49.864;8.656;2023-03-31T08:30:09;3.27;;;2.37;;
5493;SDS011;2769;49.864;8.656;2023-03-31T08:32:38;4.70;;;2.40;;
5493;SDS011;2769;49.864;8.656;2023-03-31T08:35:06;6.33;;;2.30;;
5493;SDS011;2769;49.864;8.656;2023-03-31T08:37:35;2.90;;;2.20;;
5493;SDS011;2769;49.864;8.656;2023-03-31T08:40:05;1.90;;;1.80;;
5493;SDS011;2769;49.864;8.656;2023-03-31T08:42:35;3.73;;;2.00;;
5493;SDS011;2769;49.864;8.656;2023-03-31T08:45:08;4.53;;;2.07;;
5493;SDS011;2769;49.864;8.656;2023-03-31T08:47:38;3.57;;;2.10;;
5493;SDS011;2769;49.864;8.656;2023-03-31T08:50:09;5.40;;;2.17;;
5493;SDS011;2769;49.864;8.656;2023-03-31T08:52:41;4.50;;;2.40;;
5493;SDS011;2769;49.864;8.656;2023-03-31T08:55:15;2.23;;;2.13;;
5493;SDS011;2769;49.864;8.656;2023-03-31T08:57:49;3.80;;;2.43;;
5493;SDS011;2769;49.864;8.656;2023-03-31T09:00:21;6.07;;;2.90;;
5493;SDS011;2769;49.864;8.656;2023-03-31T09:02:49;4.07;;;2.93;;
5493;SDS011;2769;49.864;8.656;2023-03-31T09:05:26;4.93;;;2.80;;
5493;SDS011;2769;49.864;8.656;2023-03-31T09:08:32;4.40;;;2.47;;
5493;SDS011;2769;49.864;8.656;2023-03-31T09:11:09;6.23;;;3.10;;
5493;SDS011;2769;49.864;8.656;2023-03-31T09:13:44;4.60;;;3.53;;
5493;SDS011;2769;49.864;8.656;2023-03-31T09:16:19;4.40;;;3.50;;
5493;SDS011;2769;49.864;8.656;2023-03-31T09:18:48;4.53;;;3.50;;
5493;SDS011;2769;49.864;8.656;2023-03-31T09:21:17;10.17;;;4.10;;
5493;SDS011;2769;49.864;8.656;2023-03-31T09:23:50;6.73;;;4.20;;
5493;SDS011;2769;49.864;8.656;2023-03-31T09:26:25;8.20;;;4.10;;
5493;SDS011;2769;49.864;8.656;2023-03-31T09:28:53;6.30;;;3.00;;
5493;SDS011;2769;49.864;8.656;2023-03-31T09:31:24;7.03;;;3.30;;
5493;SDS011;2769;49.864;8.656;2023-03-31T09:33:53;8.00;;;3.03;;
5493;SDS011;2769;49.864;8.656;2023-03-31T09:36:24;9.27;;;3.70;;
5493;SDS011;2769;49.864;8.656;2023-03-31T09:38:52;8.27;;;3.70;;
5493;SDS011;2769;49.864;8.656;2023-03-31T09:41:20;6.93;;;3.20;;
5493;SDS011;2769;49.864;8.656;2023-03-31T09:43:49;4.70;;;3.20;;
5493;SDS011;2769;49.864;8.656;2023-03-31T09:46:18;5.20;;;3.20;;
5493;SDS011;2769;49.864;8.656;2023-03-31T09:48:51;6.40;;;2.93;;
5493;SDS011;2769;49.864;8.656;2023-03-31T09:51:23;5.77;;;2.73;;
5493;SDS011;2769;49.864;8.656;2023-03-31T09:53:57;7.30;;;2.70;;
5493;SDS011;2769;49.864;8.656;2023-03-31T09:56:32;8.83;;;3.70;;
5493;SDS011;2769;49.864;8.656;2023-03-31T09:59:04;8.13;;;3.60;;
5493;SDS011;2769;49.864;8.656;2023-03-31T10:01:32;6.53;;;3.23;;
5493;SDS011;2769;49.864;8.656;2023-03-31T10:04:02;4.73;;;2.80;;
5493;SDS011;2769;49.864;8.656;2023-03-31T10:06:36;4.80;;;2.57;;
5493;SDS011;2769;49.864;8.656;2023-03-31T10:09:08;10.27;;;2.63;;
5493;SDS011;2769;49.864;8.656;2023-03-31T10:11:36;4.23;;;2.00;;
5493;SDS011;2769;49.864;8.656;2023-03-31T10:14:09;4.97;;;1.90;;
5493;SDS011;2769;49.864;8.656;2023-03-31T10:16:43;6.67;;;1.87;;
5493;SDS011;2769;49.864;8.656;2023-03-31T10:19:18;3.60;;;2.10;;
5493;SDS011;2769;49.864;8.656;2023-03-31T10:21:48;3.50;;;1.60;;
5493;SDS011;2769;49.864;8.656;2023-03-31T10:24:22;4.00;;;1.80;;
5493;SDS011;2769;49.864;8.656;2023-03-31T10:26:52;1.53;;;1.27;;
5493;SDS011;2769;49.864;8.656;2023-03-31T10:29:23;2.83;;;1.43;;
5493;SDS011;2769;49.864;8.656;2023-03-31T10:32:00;2.50;;;1.20;;
5493;SDS011;2769;49.864;8.656;2023-03-31T10:34:29;9.03;;;1.20;;
5493;SDS011;2769;49.864;8.656;2023-03-31T10:36:57;1.90;;;1.10;;
5493;SDS011;2769;49.864;8.656;2023-03-31T10:39:28;4.30;;;1.30;;
5493;SDS011;2769;49.864;8.656;2023-03-31T10:41:57;1.17;;;1.00;;
5493;SDS011;2769;49.864;8.656;2023-03-31T10:44:31;2.03;;;1.30;;
5493;SDS011;2769;49.864;8.656;2023-03-31T10:47:03;2.60;;;1.23;;
5493;SDS011;2769;49.864;8.656;2023-03-31T10:49:36;1.60;;;1.50;;
5493;SDS011;2769;49.864;8.656;2023-03-31T10:52:12;2.10;;;1.50;;
5493;SDS011;2769;49.864;8.656;2023-03-31T10:54:47;4.90;;;1.50;;
5493;SDS011;2769;49.864;8.656;2023-03-31T10:57:16;6.37;;;1.73;;
5493;SDS011;2769;49.864;8.656;2023-03-31T11:02:50;4.43;;;1.50;;
5493;SDS011;2769;49.864;8.656;2023-03-31T11:05:41;10.00;;;2.03;;
5493;SDS011;2769;49.864;8.656;2023-03-31T11:08:17;5.20;;;2.40;;
5493;SDS011;2769;49.864;8.656;2023-03-31T11:10:53;8.97;;;2.27;;
5493;SDS011;2769;49.864;8.656;2023-03-31T11:13:30;3.90;;;1.67;;
5493;SDS011;2769;49.864;8.656;2023-03-31T11:16:06;6.70;;;2.47;;
5493;SDS011;2769;49.864;8.656;2023-03-31T11:18:44;5.93;;;2.00;;
5493;SDS011;2769;49.864;8.656;2023-03-31T11:21:31;8.80;;;2.03;;
5493;SDS011;2769;49.864;8.656;2023-03-31T11:24:08;5.03;;;1.73;;
5493;SDS011;2769;49.864;8.656;2023-03-31T11:26:45;6.53;;;2.10;;
5493;SDS011;2769;49.864;8.656;2023-03-31T11:29:24;2.60;;;1.30;;
5493;SDS011;2769;49.864;8.656;2023-03-31T11:32:01;5.87;;;2.10;;
5493;SDS011;2769;49.864;8.656;2023-03-31T11:34:45;14.93;;;2.43;;
5493;SDS011;2769;49.864;8.656;2023-03-31T11:37:27;5.83;;;2.00;;
5493;SDS011;2769;49.864;8.656;2023-03-31T11:40:05;13.30;;;2.50;;
5493;SDS011;2769;49.864;8.656;2023-03-31T11:42:43;7.47;;;2.07;;
5493;SDS011;2769;49.864;8.656;2023-03-31T11:45:15;7.87;;;2.27;;
5493;SDS011;2769;49.864;8.656;2023-03-31T11:47:48;4.10;;;2.40;;
5493;SDS011;2769;49.864;8.656;2023-03-31T11:50:18;11.87;;;2.53;;
5493;SDS011;2769;49.864;8.656;2023-03-31T11:52:49;11.47;;;3.10;;
5493;SDS011;2769;49.864;8.656;2023-03-31T11:55:22;8.00;;;2.37;;
5493;SDS011;2769;49.864;8.656;2023-03-31T11:57:55;5.50;;;1.63;;
5493;SDS011;2769;49.864;8.656;2023-03-31T12:00:26;10.00;;;2.30;;
5493;SDS011;2769;49.864;8.656;2023-03-31T12:02:58;9.50;;;2.70;;
5493;SDS011;2769;49.864;8.656;2023-03-31T12:05:30;7.70;;;2.27;;
5493;SDS011;2769;49.864;8.656;2023-03-31T12:08:00;11.33;;;2.23;;
5493;SDS011;2769;49.864;8.656;2023-03-31T12:10:31;9.73;;;2.30;;
5493;SDS011;2769;49.864;8.656;2023-03-31T12:13:05;6.57;;;1.97;;
5493;SDS011;2769;49.864;8.656;2023-03-31T12:15:41;6.37;;;2.13;;
5493;SDS011;2769;49.864;8.656;2023-03-31T12:18:14;6.73;;;1.60;;
5493;SDS011;2769;49.864;8.656;2023-03-31T12:20:45;7.20;;;1.97;;
5493;SDS011;2769;49.864;8.656;2023-03-31T12:23:16;1.77;;;1.30;;
5493;SDS011;2769;49.864;8.656;2023-03-31T12:25:49;4.93;;;1.53;;
5493;SDS011;2769;49.864;8.656;2023-03-31T12:28:18;3.90;;;1.43;;
5493;SDS011;2769;49.864;8.656;2023-03-31T12:30:47;8.70;;;1.77;;
5493;SDS011;2769;49.864;8.656;2023-03-31T12:33:21;9.47;;;2.33;;
5493;SDS011;2769;49.864;8.656;2023-03-31T12:35:56;10.97;;;2.30;;
5493;SDS011;2769;49.864;8.656;2023-03-31T12:38:36;7.80;;;2.00;;
5493;SDS011;2769;49.864;8.656;2023-03-31T12:41:09;8.00;;;1.73;;
5493;SDS011;2769;49.864;8.656;2023-03-31T12:46:45;7.23;;;1.90;;
5493;SDS011;2769;49.864;8.656;2023-03-31T12:49:23;8.30;;;1.90;;
5493;SDS011;2769;49.864;8.656;2023-03-31T12:52:00;6.23;;;1.60;;
5493;SDS011;2769;49.864;8.656;2023-03-31T12:54:44;6.13;;;2.00;;
5493;SDS011;2769;49.864;8.656;2023-03-31T12:57:21;12.10;;;2.67;;
5493;SDS011;2769;49.864;8.656;2023-03-31T13:00:08;5.20;;;1.70;;
5493;SDS011;2769;49.864;8.656;2023-03-31T13:02:44;8.77;;;2.00;;
5493;SDS011;2769;49.864;8.656;2023-03-31T13:11:17;4.23;;;1.67;;
5493;SDS011;2769;49.864;8.656;2023-03-31T13:13:50;4.47;;;1.77;;
5493;SDS011;2769;49.864;8.656;2023-03-31T13:16:44;7.57;;;1.60;;
5493;SDS011;2769;49.864;8.656;2023-03-31T13:19:24;7.57;;;1.70;;
5493;SDS011;2769;49.864;8.656;2023-03-31T13:21:56;8.03;;;1.80;;
5493;SDS011;2769;49.864;8.656;2023-03-31T13:24:26;4.40;;;1.70;;
5493;SDS011;2769;49.864;8.656;2023-03-31T13:26:55;15.33;;;2.13;;
5493;SDS011;2769;49.864;8.656;2023-03-31T13:29:25;3.60;;;1.40;;
5493;SDS011;2769;49.864;8.656;2023-03-31T13:32:19;3.73;;;1.10;;
5493;SDS011;2769;49.864;8.656;2023-03-31T13:34:49;2.80;;;0.80;;
5493;SDS011;2769;49.864;8.656;2023-03-31T13:37:28;1.87;;;0.90;;
5493;SDS011;2769;49.864;8.656;2023-03-31T13:40:12;2.67;;;0.90;;
5493;SDS011;2769;49.864;8.656;2023-03-31T13:43:04;1.73;;;0.70;;
5493;SDS011;2769;49.864;8.656;2023-03-31T13:45:53;1.90;;;0.93;;
5493;SDS011;2769;49.864;8.656;2023-03-31T13:48:37;2.10;;;0.60;;
5493;SDS011;2769;49.864;8.656;2023-03-31T13:51:18;6.17;;;0.90;;
5493;SDS011;2769;49.864;8.656;2023-03-31T13:53:59;1.13;;;0.83;;
5493;SDS011;2769;49.864;8.656;2023-03-31T13:59:46;1.37;;;1.00;;
5493;SDS011;2769;49.864;8.656;2023-03-31T14:02:38;1.13;;;0.90;;
5493;SDS011;2769;49.864;8.656;2023-03-31T14:05:24;0.80;;;0.80;;
5493;SDS011;2769;49.864;8.656;2023-03-31T14:07:55;1.03;;;0.80;;
5493;SDS011;2769;49.864;8.656;2023-03-31T14:10:28;2.00;;;0.70;;
5493;SDS011;2769;49.864;8.656;2023-03-31T14:13:04;1.77;;;1.63;;
5493;SDS011;2769;49.864;8.656;2023-03-31T14:15:33;1.67;;;1.00;;
5493;SDS011;2769;49.864;8.656;2023-03-31T14:18:02;2.70;;;0.80;;
5493;SDS011;2769;49.864;8.656;2023-03-31T14:20:34;1.23;;;0.83;;
5493;SDS011;2769;49.864;8.656;2023-03-31T14:23:09;2.10;;;1.00;;
5493;SDS011;2769;49.864;8.656;2023-03-31T14:25:47;1.10;;;0.87;;
5493;SDS011;2769;49.864;8.656;2023-03-31T14:28:24;1.37;;;0.93;;
5493;SDS011;2769;49.864;8.656;2023-03-31T14:31:06;1.00;;;0.90;;
5493;SDS011;2769;49.864;8.656;2023-03-31T14:33:41;1.40;;;1.00;;
5493;SDS011;2769;49.864;8.656;2023-03-31T14:36:18;1.83;;;1.20;;
5493;SDS011;2769;49.864;8.656;2023-03-31T14:38:51;3.07;;;1.30;;
5493;SDS011;2769;49.864;8.656;2023-03-31T14:41:20;1.17;;;1.07;;
5493;SDS011;2769;49.864;8.656;2023-03-31T14:43:55;4.17;;;1.27;;
5493;SDS011;2769;49.864;8.656;2023-03-31T14:46:24;2.27;;;1.20;;
5493;SDS011;2769;49.864;8.656;2023-03-31T14:48:52;3.20;;;0.90;;
5493;SDS011;2769;49.864;8.656;2023-03-31T14:51:23;4.63;;;1.30;;
5493;SDS011;2769;49.864;8.656;2023-03-31T14:53:56;4.10;;;1.33;;
5493;SDS011;2769;49.864;8.656;2023-03-31T14:56:27;4.37;;;1.43;;
5493;SDS011;2769;49.864;8.656;2023-03-31T14:58:59;6.43;;;1.43;;
5493;SDS011;2769;49.864;8.656;2023-03-31T15:01:28;5.10;;;1.43;;
5493;SDS011;2769;49.864;8.656;2023-03-31T15:04:00;3.57;;;1.40;;
5493;SDS011;2769;49.864;8.656;2023-03-31T15:06:32;2.70;;;1.17;;
5493;SDS011;2769;49.864;8.656;2023-03-31T15:09:00;5.63;;;1.53;;
5493;SDS011;2769;49.864;8.656;2023-03-31T15:11:34;5.47;;;1.30;;
5493;SDS011;2769;49.864;8.656;2023-03-31T15:14:03;6.30;;;1.97;;
5493;SDS011;2769;49.864;8.656;2023-03-31T15:16:34;4.13;;;1.60;;
5493;SDS011;2769;49.864;8.656;2023-03-31T15:19:10;1.33;;;1.13;;
5493;SDS011;2769;49.864;8.656;2023-03-31T15:21:40;2.27;;;1.00;;
5493;SDS011;2769;49.864;8.656;2023-03-31T15:24:09;1.70;;;0.83;;
5493;SDS011;2769;49.864;8.656;2023-03-31T15:26:40;2.40;;;0.80;;
5493;SDS011;2769;49.864;8.656;2023-03-31T15:29:11;1.97;;;0.93;;
5493;SDS011;2769;49.864;8.656;2023-03-31T15:31:43;0.87;;;0.70;;
5493;SDS011;2769;49.864;8.656;2023-03-31T15:34:18;0.60;;;0.60;;
5493;SDS011;2769;49.864;8.656;2023-03-31T15:36:48;1.27;;;0.97;;
5493;SDS011;2769;49.864;8.656;2023-03-31T15:39:17;2.77;;;1.00;;
5493;SDS011;2769;49.864;8.656;2023-03-31T15:41:47;1.47;;;0.67;;
5493;SDS011;2769;49.864;8.656;2023-03-31T15:44:27;0.60;;;0.60;;
5493;SDS011;2769;49.864;8.656;2023-03-31T15:47:07;3.93;;;0.90;;
5493;SDS011;2769;49.864;8.656;2023-03-31T15:49:45;1.47;;;0.90;;
5493;SDS011;2769;49.864;8.656;2023-03-31T15:52:19;1.67;;;1.00;;
5493;SDS011;2769;49.864;8.656;2023-03-31T15:54:48;1.50;;;1.30;;
5493;SDS011;2769;49.864;8.656;2023-03-31T15:57:17;3.53;;;1.00;;
5493;SDS011;2769;49.864;8.656;2023-03-31T15:59:48;1.80;;;0.90;;
5493;SDS011;2769;49.864;8.656;2023-03-31T16:02:41;0.97;;;0.70;;
5493;SDS011;2769;49.864;8.656;2023-03-31T16:05:20;2.30;;;1.30;;
5493;SDS011;2769;49.864;8.656;2023-03-31T16:08:27;2.27;;;1.17;;
5493;SDS011;2769;49.864;8.656;2023-03-31T16:10:59;6.63;;;1.20;;
5493;SDS011;2769;49.864;8.656;2023-03-31T16:13:30;2.13;;;1.37;;